createdAt,value
2019-05-22T00:00:01.218Z,12.39
2019-05-22T00:04:21.590Z,12.36
2019-05-22T00:08:41.990Z,12.36
2019-05-22T00:13:02.673Z,12.48
2019-05-22T00:17:28.527Z,12.26
2019-05-22T00:21:49.155Z,12.35
2019-05-22T00:26:10.171Z,12.39
2019-05-22T00:30:30.468Z,12.52
2019-05-22T00:34:50.977Z,12.16
2019-05-22T00:39:11.673Z,12.30
2019-05-22T00:43:32.864Z,12.20
2019-05-22T00:47:52.980Z,12.06
2019-05-22T00:52:17.621Z,12.26
2019-05-22T00:56:37.880Z,12.25
2019-05-22T01:00:58.871Z,12.34
2019-05-22T01:05:20.794Z,12.46
2019-05-22T01:09:42.263Z,12.44
2019-05-22T01:14:02.350Z,12.11
2019-05-22T01:18:24.902Z,12.29
2019-05-22T01:22:47.479Z,12.21
2019-05-22T01:27:08.406Z,12.17
2019-05-22T01:31:28.703Z,12.08
2019-05-22T01:35:52.022Z,11.85
2019-05-22T01:40:20.915Z,12.20
2019-05-22T01:44:41.091Z,12.00
2019-05-22T01:49:01.977Z,12.31
2019-05-22T01:53:22.965Z,12.13
2019-05-22T01:57:43.254Z,12.31
2019-05-22T02:02:03.652Z,12.04
2019-05-22T02:06:24.985Z,12.56
2019-05-22T02:10:46.095Z,12.40
2019-05-22T02:15:06.633Z,12.36
2019-05-22T02:19:27.555Z,12.14
2019-05-22T02:23:47.660Z,12.09
2019-05-22T02:28:08.126Z,12.27
2019-05-22T02:32:28.805Z,12.19
2019-05-22T02:36:48.998Z,12.18
2019-05-22T02:41:14.017Z,12.15
2019-05-22T02:45:32.121Z,12.12
2019-05-22T02:49:54.563Z,11.98
2019-05-22T02:54:15.163Z,12.29
2019-05-22T02:58:36.889Z,11.97
2019-05-22T03:02:58.100Z,12.22
2019-05-22T03:07:18.501Z,12.15
2019-05-22T03:11:41.537Z,11.91
2019-05-22T03:16:01.817Z,11.83
2019-05-22T03:20:22.856Z,12.05
2019-05-22T03:24:43.633Z,12.10
2019-05-22T03:29:04.650Z,11.75
2019-05-22T03:33:24.948Z,11.66
2019-05-22T03:37:45.115Z,11.67
2019-05-22T03:42:07.275Z,11.62
2019-05-22T03:46:39.279Z,11.04
2019-05-22T03:51:09.252Z,11.23
2019-05-22T03:55:29.309Z,11.01
2019-05-22T03:59:49.363Z,11.43
2019-05-22T04:04:10.938Z,11.45
2019-05-22T04:08:31.818Z,11.45
2019-05-22T04:12:51.912Z,11.30
2019-05-22T04:17:12.451Z,11.47
2019-05-22T04:21:32.601Z,11.60
2019-05-22T04:25:53.572Z,11.62
2019-05-22T04:30:14.200Z,11.72
2019-05-22T04:34:34.809Z,11.74
2019-05-22T04:38:56.198Z,11.55
2019-05-22T04:43:20.418Z,11.68
2019-05-22T04:47:42.576Z,11.73
2019-05-22T04:52:03.272Z,11.54
2019-05-22T04:56:26.054Z,11.53
2019-05-22T05:00:46.520Z,11.57
2019-05-22T05:05:09.133Z,11.70
2019-05-22T05:09:29.984Z,11.57
2019-05-22T05:13:50.439Z,11.65
2019-05-22T05:18:10.843Z,11.60
2019-05-22T05:22:40.497Z,11.63
2019-05-22T05:27:00.905Z,11.52
2019-05-22T05:31:21.909Z,11.60
2019-05-22T05:35:42.977Z,11.69
2019-05-22T05:40:28.135Z,11.70
2019-05-22T05:44:49.275Z,11.58
2019-05-22T05:49:10.573Z,11.46
2019-05-22T05:53:33.054Z,11.60
2019-05-22T05:58:22.827Z,11.44
2019-05-22T06:02:56.069Z,11.43
2019-05-22T06:10:34.021Z,11.43
2019-05-22T06:14:54.842Z,11.40
2019-05-22T06:19:15.961Z,11.70
2019-05-22T06:24:14.295Z,11.70
2019-05-22T06:28:37.361Z,11.71
2019-05-22T06:33:38.025Z,11.82
2019-05-22T06:38:17.251Z,11.81
2019-05-22T06:42:42.098Z,11.77
2019-05-22T06:47:03.706Z,11.90
2019-05-22T06:51:36.810Z,11.70
2019-05-22T06:55:58.509Z,11.90
2019-05-22T07:00:19.928Z,11.67
2019-05-22T07:04:40.839Z,11.78
2019-05-22T07:09:01.302Z,11.50
2019-05-22T07:13:23.350Z,11.85
2019-05-22T07:17:44.812Z,11.90
2019-05-22T07:22:05.967Z,11.88
2019-05-22T07:26:27.490Z,11.96
2019-05-22T07:30:48.808Z,11.75
2019-05-22T07:35:10.357Z,11.75
2019-05-22T07:39:31.620Z,11.97
2019-05-22T07:43:53.587Z,11.40
2019-05-22T07:48:15.533Z,11.85
2019-05-22T07:52:36.424Z,11.93
2019-05-22T07:56:58.334Z,12.10
2019-05-22T08:01:29.377Z,12.21
2019-05-22T08:05:55.171Z,11.97
2019-05-22T08:10:17.798Z,12.20
2019-05-22T08:14:38.809Z,12.46
2019-05-22T08:19:00.095Z,12.63
2019-05-22T08:23:21.189Z,12.83
2019-05-22T08:27:42.247Z,13.15
2019-05-22T08:32:03.659Z,13.24
2019-05-22T08:36:24.785Z,13.40
2019-05-22T08:40:45.659Z,13.48
2019-05-22T08:45:06.726Z,13.46
2019-05-22T08:49:27.412Z,13.40
2019-05-22T08:53:48.757Z,13.48
2019-05-22T08:58:20.945Z,13.76
2019-05-22T09:02:41.992Z,13.99
2019-05-22T09:07:02.933Z,13.86
2019-05-22T09:11:24.387Z,13.71
2019-05-22T09:15:45.709Z,13.53
2019-05-22T09:20:12.146Z,13.69
2019-05-22T09:24:34.974Z,14.09
2019-05-22T09:28:55.848Z,14.32
2019-05-22T09:33:16.421Z,14.47
2019-05-22T09:37:37.555Z,14.15
2019-05-22T09:41:58.070Z,14.12
2019-05-22T09:46:19.068Z,13.66
2019-05-22T09:50:39.899Z,13.86
2019-05-22T09:55:00.506Z,14.10
2019-05-22T09:59:21.115Z,14.14
2019-05-22T10:03:41.704Z,14.02
2019-05-22T10:08:02.162Z,13.81
2019-05-22T10:12:23.000Z,14.19
2019-05-22T10:16:43.578Z,14.62
2019-05-22T10:21:04.090Z,15.22
2019-05-22T10:25:24.691Z,15.44
2019-05-22T10:29:45.228Z,15.32
2019-05-22T10:34:06.088Z,15.12
2019-05-22T10:38:27.004Z,15.06
2019-05-22T10:42:52.645Z,15.22
2019-05-22T10:47:13.120Z,14.74
2019-05-22T10:51:33.841Z,15.33
2019-05-22T10:55:54.634Z,15.15
2019-05-22T11:00:16.725Z,14.97
2019-05-22T11:04:37.347Z,15.15
2019-05-22T11:08:58.050Z,15.71
2019-05-22T11:13:18.549Z,15.79
2019-05-22T11:17:39.944Z,15.55
2019-05-22T11:22:00.961Z,16.08
2019-05-22T11:26:22.007Z,16.27
2019-05-22T11:30:42.696Z,16.16
2019-05-22T11:35:06.757Z,16.52
2019-05-22T11:39:38.522Z,16.95
2019-05-22T11:43:49.023Z,17.19
2019-05-22T11:48:09.656Z,16.70
2019-05-22T11:52:30.623Z,17.40
2019-05-22T11:56:51.247Z,17.02
2019-05-22T12:01:11.678Z,17.03
2019-05-22T12:05:32.992Z,16.90
2019-05-22T12:09:53.535Z,16.57
2019-05-22T12:14:15.013Z,17.05
2019-05-22T12:18:35.254Z,16.62
2019-05-22T12:22:55.972Z,16.76
2019-05-22T12:27:16.426Z,17.10
2019-05-22T12:31:37.185Z,17.45
2019-05-22T12:35:57.606Z,18.07
2019-05-22T12:40:18.500Z,17.72
2019-05-22T12:44:40.058Z,17.95
2019-05-22T12:49:01.510Z,18.22
2019-05-22T12:53:22.107Z,18.43
2019-05-22T12:57:42.783Z,18.55
2019-05-22T13:02:04.373Z,18.69
2019-05-22T13:06:25.647Z,18.27
2019-05-22T13:10:47.417Z,18.51
2019-05-22T13:15:10.402Z,19.31
2019-05-22T13:19:31.536Z,19.58
2019-05-22T13:23:52.535Z,19.60
2019-05-22T13:28:16.960Z,19.67
2019-05-22T13:32:56.935Z,19.49
2019-05-22T13:37:17.964Z,18.64
2019-05-22T13:41:42.809Z,19.16
2019-05-22T13:46:03.409Z,19.24
2019-05-22T13:50:28.692Z,19.38
2019-05-22T13:54:55.897Z,19.16
2019-05-22T13:59:16.702Z,19.51
2019-05-22T14:03:38.271Z,19.70
2019-05-22T14:08:00.306Z,19.14
2019-05-22T14:12:21.772Z,19.38
2019-05-22T14:16:48.658Z,19.23
2019-05-22T14:21:04.698Z,19.22
2019-05-22T14:25:25.733Z,19.49
2019-05-22T14:29:46.320Z,19.67
2019-05-22T14:34:09.233Z,19.48
2019-05-22T14:38:30.701Z,19.39
2019-05-22T14:42:52.261Z,19.22
2019-05-22T14:47:16.279Z,19.72
2019-05-22T14:51:35.787Z,19.92
2019-05-22T14:55:57.172Z,19.99
2019-05-22T15:00:18.892Z,20.18
2019-05-22T15:04:40.313Z,20.05
2019-05-22T15:09:01.365Z,19.05
2019-05-22T15:13:22.088Z,19.48
2019-05-22T15:17:42.856Z,19.55
2019-05-22T15:22:04.842Z,19.76
2019-05-22T15:26:25.792Z,19.57
2019-05-22T15:30:46.525Z,19.68
2019-05-22T15:35:10.951Z,19.63
2019-05-22T15:39:32.491Z,19.85
2019-05-22T15:43:54.433Z,19.56
2019-05-22T15:48:17.138Z,19.67
2019-05-22T15:52:39.119Z,19.50
2019-05-22T15:57:00.801Z,19.14
2019-05-22T16:01:31.228Z,19.82
2019-05-22T16:05:53.283Z,20.29
2019-05-22T16:10:13.881Z,20.24
2019-05-22T16:14:34.867Z,20.00
2019-05-22T16:18:59.951Z,19.76
2019-05-22T16:23:22.093Z,20.02
2019-05-22T16:27:44.666Z,19.46
2019-05-22T16:32:07.569Z,19.35
2019-05-22T16:36:29.048Z,19.36
2019-05-22T16:41:27.307Z,18.86
2019-05-22T16:45:48.587Z,18.64
2019-05-22T16:50:11.445Z,18.69
2019-05-22T16:54:32.764Z,19.18
2019-05-22T16:58:53.717Z,19.28
2019-05-22T17:03:14.609Z,19.36
2019-05-22T17:07:35.932Z,19.09
2019-05-22T17:11:57.317Z,18.70
2019-05-22T17:16:17.847Z,20.05
2019-05-22T17:20:43.382Z,20.34
2019-05-22T17:25:04.348Z,20.21
2019-05-22T17:29:24.867Z,19.69
2019-05-22T17:33:46.034Z,19.60
2019-05-22T17:38:06.992Z,19.60
2019-05-22T17:42:28.743Z,19.48
2019-05-22T17:46:49.866Z,19.48
2019-05-22T17:51:10.989Z,19.38
2019-05-22T17:55:36.841Z,19.56
2019-05-22T17:59:59.131Z,19.56
2019-05-22T18:04:19.483Z,19.62
2019-05-22T18:08:41.498Z,19.38
2019-05-22T18:13:03.292Z,19.34
2019-05-22T18:17:24.447Z,19.30
2019-05-22T18:21:45.154Z,19.23
2019-05-22T18:26:05.755Z,19.06
2019-05-22T18:30:26.972Z,19.02
2019-05-22T18:34:54.481Z,18.98
2019-05-22T18:39:15.422Z,18.93
2019-05-22T18:43:36.019Z,18.79
2019-05-22T18:47:58.352Z,18.73
2019-05-22T18:52:19.260Z,18.66
2019-05-22T18:56:40.807Z,18.60
2019-05-22T19:01:01.700Z,18.54
2019-05-22T19:05:25.852Z,18.53
2019-05-22T19:09:46.724Z,18.35
2019-05-22T19:14:08.113Z,18.30
2019-05-22T19:18:28.941Z,18.07
2019-05-22T19:22:59.931Z,17.95
2019-05-22T19:27:13.711Z,17.85
2019-05-22T19:31:35.258Z,17.64
2019-05-22T19:35:56.340Z,17.49
2019-05-22T19:40:18.133Z,17.43
2019-05-22T19:44:39.787Z,17.26
2019-05-22T19:49:01.793Z,17.21
2019-05-22T19:53:22.266Z,17.07
2019-05-22T19:57:44.283Z,17.02
2019-05-22T20:02:04.979Z,16.88
2019-05-22T20:06:25.771Z,16.91
2019-05-22T20:10:47.281Z,16.81
2019-05-22T20:15:08.271Z,16.62
2019-05-22T20:19:29.871Z,16.64
2019-05-22T20:23:51.851Z,16.53
2019-05-22T20:28:13.584Z,16.54
2019-05-22T20:32:45.772Z,16.54
2019-05-22T20:37:16.880Z,16.50
2019-05-22T20:41:46.774Z,16.55
2019-05-22T20:46:10.324Z,16.56
2019-05-22T20:50:40.275Z,16.50
2019-05-22T20:55:03.916Z,16.50
2019-05-22T20:59:25.124Z,16.48
2019-05-22T21:03:45.800Z,16.45
2019-05-22T21:08:10.362Z,16.34
2019-05-22T21:12:35.477Z,16.38
2019-05-22T21:16:54.719Z,16.26
2019-05-22T21:21:15.892Z,16.29
2019-05-22T21:25:36.737Z,16.25
2019-05-22T21:29:57.249Z,16.18
2019-05-22T21:34:18.056Z,16.18
2019-05-22T21:38:39.199Z,16.13
2019-05-22T21:43:00.591Z,16.10
2019-05-22T21:47:21.913Z,16.00
2019-05-22T21:51:43.222Z,15.95
2019-05-22T21:56:07.521Z,15.97
2019-05-22T22:00:32.729Z,15.89
2019-05-22T22:04:54.311Z,15.85
2019-05-22T22:09:15.054Z,15.63
2019-05-22T22:13:36.973Z,15.53
2019-05-22T22:17:57.310Z,15.38
2019-05-22T22:26:37.973Z,15.15
2019-05-22T22:31:00.375Z,15.06
2019-05-22T22:35:21.557Z,14.93
2019-05-22T22:39:43.911Z,14.90
2019-05-22T22:44:05.021Z,14.80
2019-05-22T22:48:25.295Z,14.78
2019-05-22T22:52:46.421Z,14.73
2019-05-22T22:57:07.329Z,14.72
2019-05-22T23:01:29.768Z,14.56
2019-05-22T23:05:50.762Z,14.52
2019-05-22T23:10:12.120Z,14.56
2019-05-22T23:14:33.336Z,14.50
2019-05-22T23:19:15.576Z,14.42
2019-05-22T23:23:34.817Z,14.41
2019-05-22T23:27:55.997Z,14.39
2019-05-22T23:32:16.378Z,14.33
2019-05-22T23:36:36.660Z,14.27
2019-05-22T23:40:57.147Z,14.33
2019-05-22T23:45:19.195Z,14.21
2019-05-22T23:49:40.205Z,14.11
2019-05-22T23:54:00.857Z,14.08
2019-05-22T23:58:22.043Z,14.03
